Time;durP1;ratioP1;P1;durP2;ratioP2;P2;SDS_P1;SDS_P2;PMS_P1;PMS_P2;Temp;Humidity;BMP_temperature;BMP_pressure;BME280_temperature;BME280_humidity;BME280_pressure;Samples;Min_cycle;Max_cycle;Signal;HPM_P1;HPM_P2
2022/05/13 00:02:06;;;;;;;2.20;1.63;;;;;;;;;;5056649;28;20071;-84
2022/05/13 00:04:32;;;;;;;5.65;2.17;;;;;;;;;;5056414;28;20039;-88
2022/05/13 00:06:59;;;;;;;4.35;1.92;;;;;;;;;;5072964;28;20078;-85
2022/05/13 00:12:09;;;;;;;2.75;1.80;;;;;;;;;;5072643;28;20048;-87
2022/05/13 00:14:35;;;;;;;5.18;1.98;;;;;;;;;;5055942;28;20051;-85
2022/05/13 00:17:01;;;;;;;3.58;2.35;;;;;;;;;;5056045;28;20047;-86
2022/05/13 00:19:27;;;;;;;4.05;2.08;;;;;;;;;;5072466;28;20036;-89
2022/05/13 00:21:53;;;;;;;7.15;2.42;;;;;;;;;;5056008;28;20504;-89
2022/05/13 00:24:19;;;;;;;4.80;2.35;;;;;;;;;;5056132;28;20044;-85
2022/05/13 00:26:45;;;;;;;5.60;2.25;;;;;;;;;;5056218;28;20032;-85
2022/05/13 00:29:11;;;;;;;3.75;2.35;;;;;;;;;;5056044;28;20040;-85
2022/05/13 00:31:38;;;;;;;4.53;2.03;;;;;;;;;;5055941;28;20048;-85
2022/05/13 00:34:04;;;;;;;6.20;2.45;;;;;;;;;;5072573;28;20048;-82
2022/05/13 00:36:30;;;;;;;4.53;2.35;;;;;;;;;;5055467;28;20047;-83
2022/05/13 00:38:56;;;;;;;5.53;2.40;;;;;;;;;;5055792;28;20036;-89
2022/05/13 00:41:22;;;;;;;2.38;1.77;;;;;;;;;;5055276;28;20036;-83
2022/05/13 00:43:52;;;;;;;7.45;2.58;;;;;;;;;;5055666;28;20094;-89
2022/05/13 00:46:19;;;;;;;3.23;1.97;;;;;;;;;;5054567;28;20127;-88
2022/05/13 00:48:45;;;;;;;4.28;2.05;;;;;;;;;;5055366;28;20408;-84
2022/05/13 00:51:13;;;;;;;3.53;1.90;;;;;;;;;;5055366;28;20422;-86
2022/05/13 00:53:39;;;;;;;5.13;2.10;;;;;;;;;;5055195;28;20123;-82
2022/05/13 00:56:06;;;;;;;5.50;2.30;;;;;;;;;;5072167;28;20033;-86
2022/05/13 00:58:34;;;;;;;4.72;2.22;;;;;;;;;;5054955;28;20045;-87
2022/05/13 01:01:00;;;;;;;4.07;2.00;;;;;;;;;;5055309;28;20093;-87
2022/05/13 01:03:26;;;;;;;7.25;3.03;;;;;;;;;;5055158;28;20045;-82
2022/05/13 01:05:54;;;;;;;5.60;2.30;;;;;;;;;;5054956;28;20047;-83
2022/05/13 01:08:20;;;;;;;5.88;2.13;;;;;;;;;;5055177;28;20492;-84
2022/05/13 01:10:47;;;;;;;6.53;2.20;;;;;;;;;;5054848;28;20054;-87
2022/05/13 01:13:20;;;;;;;7.90;2.35;;;;;;;;;;5055309;28;20051;-83
2022/05/13 01:15:48;;;;;;;4.57;2.15;;;;;;;;;;5055644;28;20435;-88
2022/05/13 01:18:23;;;;;;;5.80;2.22;;;;;;;;;;5055558;28;20040;-84
2022/05/13 01:20:50;;;;;;;7.60;2.30;;;;;;;;;;5054791;28;20036;-86
2022/05/13 01:23:19;;;;;;;3.97;2.03;;;;;;;;;;5054839;28;20036;-83
2022/05/13 01:25:47;;;;;;;4.97;2.20;;;;;;;;;;5055342;28;20104;-88
2022/05/13 01:28:16;;;;;;;5.30;2.42;;;;;;;;;;5054779;28;20123;-83
2022/05/13 01:30:44;;;;;;;5.20;2.03;;;;;;;;;;5071574;28;20047;-86
2022/05/13 01:33:11;;;;;;;4.97;2.47;;;;;;;;;;5054948;28;20456;-83
2022/05/13 01:35:42;;;;;;;4.60;2.63;;;;;;;;;;5054964;28;20080;-89
2022/05/13 01:38:09;;;;;;;3.30;2.20;;;;;;;;;;5054786;28;20102;-87
2022/05/13 01:40:35;;;;;;;7.32;2.38;;;;;;;;;;5055362;28;20047;-87
2022/05/13 01:43:01;;;;;;;4.70;2.22;;;;;;;;;;5054953;28;20048;-85
2022/05/13 01:45:27;;;;;;;5.43;2.47;;;;;;;;;;5054305;28;20048;-82
2022/05/13 01:47:53;;;;;;;4.47;2.42;;;;;;;;;;5055133;28;20477;-90
2022/05/13 01:50:20;;;;;;;9.57;2.60;;;;;;;;;;5071666;28;20052;-83
2022/05/13 01:52:46;;;;;;;4.55;2.60;;;;;;;;;;5055052;28;20135;-88
2022/05/13 01:55:12;;;;;;;5.00;2.20;;;;;;;;;;5054793;28;20135;-83
2022/05/13 01:57:38;;;;;;;6.55;2.67;;;;;;;;;;5054508;28;20078;-85
2022/05/13 02:00:04;;;;;;;4.70;2.08;;;;;;;;;;5054574;28;20064;-86
2022/05/13 02:03:43;;;;;;;5.00;2.08;;;;;;;;;;5070849;28;20402;-89
2022/05/13 02:05:16;;;;;;;4.53;2.50;;;;;;;;;;5071437;28;20051;-83
2022/05/13 02:07:42;;;;;;;4.93;2.15;;;;;;;;;;5054392;28;20473;-84
2022/05/13 02:10:08;;;;;;;7.88;2.50;;;;;;;;;;5055134;28;20480;-82
2022/05/13 02:12:34;;;;;;;3.13;1.90;;;;;;;;;;5054380;28;20122;-83
2022/05/13 02:15:00;;;;;;;5.90;2.22;;;;;;;;;;5054728;28;20419;-85
2022/05/13 02:17:26;;;;;;;6.40;2.13;;;;;;;;;;5054908;28;20184;-85
2022/05/13 02:19:52;;;;;;;3.83;2.38;;;;;;;;;;5054716;28;20040;-88
2022/05/13 02:22:18;;;;;;;6.22;2.67;;;;;;;;;;5054321;28;20097;-82
2022/05/13 02:24:44;;;;;;;4.65;2.65;;;;;;;;;;5055012;28;20127;-85
2022/05/13 02:27:10;;;;;;;7.03;2.63;;;;;;;;;;5071336;28;20094;-85
2022/05/13 02:29:36;;;;;;;5.35;2.58;;;;;;;;;;5054673;28;20039;-85
2022/05/13 02:32:02;;;;;;;4.90;2.28;;;;;;;;;;5054897;28;20051;-86
2022/05/13 02:34:28;;;;;;;3.97;2.50;;;;;;;;;;5054768;28;20087;-87
2022/05/13 02:36:54;;;;;;;8.23;2.22;;;;;;;;;;5055271;28;20041;-88
2022/05/13 02:39:20;;;;;;;5.15;2.80;;;;;;;;;;5055231;28;20036;-88
2022/05/13 02:41:46;;;;;;;3.33;2.53;;;;;;;;;;5071484;28;20067;-82
2022/05/13 02:44:12;;;;;;;4.03;2.13;;;;;;;;;;5071963;28;20051;-87
2022/05/13 02:46:38;;;;;;;5.60;2.90;;;;;;;;;;5054664;28;20053;-88
2022/05/13 02:49:04;;;;;;;4.07;3.08;;;;;;;;;;5054351;28;20033;-83
2022/05/13 02:51:30;;;;;;;6.88;2.90;;;;;;;;;;5054525;28;20084;-86
2022/05/13 02:53:56;;;;;;;7.85;2.90;;;;;;;;;;5054720;28;20492;-87
2022/05/13 02:56:22;;;;;;;5.55;3.05;;;;;;;;;;5054052;28;20135;-87
2022/05/13 02:58:48;;;;;;;7.90;2.88;;;;;;;;;;5054106;28;20460;-85
2022/05/13 03:01:15;;;;;;;8.18;2.88;;;;;;;;;;5053813;28;20538;-84
2022/05/13 03:03:43;;;;;;;6.22;3.08;;;;;;;;;;5053349;28;20103;-86
2022/05/13 03:06:09;;;;;;;4.38;2.60;;;;;;;;;;5053918;28;20127;-86
2022/05/13 03:08:35;;;;;;;4.90;2.80;;;;;;;;;;5070666;28;20060;-86
2022/05/13 03:11:02;;;;;;;7.00;3.15;;;;;;;;;;5056920;28;20480;-82
2022/05/13 03:13:30;;;;;;;3.90;2.53;;;;;;;;;;5057558;28;20037;-87
2022/05/13 03:16:00;;;;;;;4.30;2.63;;;;;;;;;;5058325;28;20040;-86
2022/05/13 03:18:27;;;;;;;6.25;2.58;;;;;;;;;;5057561;28;20089;-86
2022/05/13 03:20:53;;;;;;;6.28;2.72;;;;;;;;;;5057286;28;20577;-85
2022/05/13 03:23:19;;;;;;;6.45;2.92;;;;;;;;;;5057658;28;20071;-86
2022/05/13 03:25:45;;;;;;;7.22;3.65;;;;;;;;;;5057523;28;20101;-86
2022/05/13 03:28:11;;;;;;;12.38;3.25;;;;;;;;;;5057266;28;20123;-92
2022/05/13 03:30:37;;;;;;;7.93;3.60;;;;;;;;;;5057450;28;20040;-89
2022/05/13 03:33:03;;;;;;;7.47;3.03;;;;;;;;;;5057584;28;20046;-85
2022/05/13 03:35:29;;;;;;;6.88;2.63;;;;;;;;;;5057060;28;20040;-88
2022/05/13 03:37:55;;;;;;;5.53;3.03;;;;;;;;;;5056916;28;20132;-82
2022/05/13 03:40:21;;;;;;;9.20;3.00;;;;;;;;;;5057146;28;20036;-86
2022/05/13 03:42:47;;;;;;;6.00;2.83;;;;;;;;;;5057661;28;20045;-82
2022/05/13 03:45:14;;;;;;;6.53;2.90;;;;;;;;;;5057837;28;20064;-84
2022/05/13 03:47:40;;;;;;;6.75;3.05;;;;;;;;;;5057403;28;20045;-88
2022/05/13 03:50:07;;;;;;;6.50;3.30;;;;;;;;;;5075099;28;20335;-83
2022/05/13 03:52:33;;;;;;;5.13;2.85;;;;;;;;;;5057004;28;20041;-88
2022/05/13 03:54:59;;;;;;;10.95;3.58;;;;;;;;;;5057577;28;20063;-87
2022/05/13 03:57:25;;;;;;;4.45;2.63;;;;;;;;;;5057499;28;20040;-90
2022/05/13 03:59:51;;;;;;;8.05;2.60;;;;;;;;;;5056515;28;20048;-85
2022/05/13 04:02:17;;;;;;;10.25;3.25;;;;;;;;;;5056975;28;20174;-83
2022/05/13 04:10:12;;;;;;;8.13;2.55;;;;;;;;;;5074000;28;20044;-82
2022/05/13 04:18:07;;;;;;;6.13;2.70;;;;;;;;;;5073456;28;20114;-86
2022/05/13 04:20:35;;;;;;;5.18;2.95;;;;;;;;;;5056517;28;20495;-88
2022/05/13 04:23:02;;;;;;;8.52;2.80;;;;;;;;;;5056840;28;20045;-84
2022/05/13 04:25:28;;;;;;;5.63;3.00;;;;;;;;;;5056657;28;20083;-85
2022/05/13 04:27:57;;;;;;;8.68;2.75;;;;;;;;;;5074010;28;20381;-87
2022/05/13 04:30:23;;;;;;;6.57;3.20;;;;;;;;;;5073470;28;20094;-83
2022/05/13 04:32:49;;;;;;;12.65;2.75;;;;;;;;;;5057328;28;20045;-85
2022/05/13 04:35:16;;;;;;;7.00;2.60;;;;;;;;;;5056446;28;20119;-86
2022/05/13 04:37:42;;;;;;;5.07;2.47;;;;;;;;;;5073486;28;20087;-84
2022/05/13 04:40:08;;;;;;;4.43;2.75;;;;;;;;;;5056830;28;20041;-84
2022/05/13 04:42:49;;;;;;;7.40;2.95;;;;;;;;;;5056743;28;20044;-84
2022/05/13 04:45:16;;;;;;;7.05;2.85;;;;;;;;;;5055509;28;20389;-85
2022/05/13 04:50:27;;;;;;;7.50;3.13;;;;;;;;;;5072446;28;20041;-90
2022/05/13 04:52:52;;;;;;;10.73;3.35;;;;;;;;;;5056185;28;20045;-88
2022/05/13 04:55:18;;;;;;;11.18;3.20;;;;;;;;;;5056767;28;20139;-87
2022/05/13 04:57:44;;;;;;;7.90;2.65;;;;;;;;;;5056549;28;20040;-88
2022/05/13 05:00:11;;;;;;;8.80;2.35;;;;;;;;;;5055876;28;20464;-86
2022/05/13 05:02:37;;;;;;;7.10;2.95;;;;;;;;;;5055948;28;20452;-84
2022/05/13 05:05:03;;;;;;;7.90;2.88;;;;;;;;;;5055936;28;20093;-88
2022/05/13 05:07:29;;;;;;;7.93;2.75;;;;;;;;;;5072712;28;20062;-82
2022/05/13 05:09:56;;;;;;;8.50;2.80;;;;;;;;;;5055869;28;20128;-83
2022/05/13 05:12:22;;;;;;;5.95;2.83;;;;;;;;;;5055851;28;20095;-88
2022/05/13 05:14:49;;;;;;;8.88;3.72;;;;;;;;;;5055434;28;20067;-82
2022/05/13 05:17:15;;;;;;;7.38;2.28;;;;;;;;;;5055928;28;20044;-85
2022/05/13 05:19:41;;;;;;;10.55;3.90;;;;;;;;;;5055619;28;20079;-86
2022/05/13 05:22:06;;;;;;;15.20;3.38;;;;;;;;;;5055901;28;20049;-87
2022/05/13 05:24:32;;;;;;;8.80;2.40;;;;;;;;;;5055669;28;20056;-84
2022/05/13 05:26:58;;;;;;;7.18;2.75;;;;;;;;;;5055866;28;20033;-84
2022/05/13 05:29:25;;;;;;;4.57;2.53;;;;;;;;;;5055621;28;20075;-85
2022/05/13 05:31:51;;;;;;;9.32;2.80;;;;;;;;;;5055254;28;20051;-86
2022/05/13 05:34:18;;;;;;;6.18;3.20;;;;;;;;;;5072633;28;20040;-89
2022/05/13 05:36:44;;;;;;;13.20;2.97;;;;;;;;;;5055569;28;20048;-86
2022/05/13 05:39:10;;;;;;;6.82;2.50;;;;;;;;;;5055758;28;20040;-82
2022/05/13 05:41:37;;;;;;;5.55;2.67;;;;;;;;;;5056390;28;20048;-87
2022/05/13 05:44:03;;;;;;;9.07;2.60;;;;;;;;;;5056194;28;20123;-84
2022/05/13 05:46:29;;;;;;;11.60;3.25;;;;;;;;;;5055486;28;20575;-84
2022/05/13 05:48:55;;;;;;;9.13;3.08;;;;;;;;;;5054925;28;20137;-84
2022/05/13 05:51:21;;;;;;;6.78;2.67;;;;;;;;;;5071846;28;20517;-84
2022/05/13 05:59:17;;;;;;;9.02;3.05;;;;;;;;;;5071807;28;20044;-84
2022/05/13 06:01:43;;;;;;;9.77;2.75;;;;;;;;;;5054835;28;20052;-83
2022/05/13 06:04:09;;;;;;;11.40;3.15;;;;;;;;;;5055130;28;20046;-89
2022/05/13 06:06:35;;;;;;;7.28;2.83;;;;;;;;;;5054827;28;20044;-83
2022/05/13 06:09:01;;;;;;;8.65;2.72;;;;;;;;;;5054998;28;20041;-83
2022/05/13 06:11:27;;;;;;;7.72;2.65;;;;;;;;;;5071441;28;20054;-87
2022/05/13 06:13:54;;;;;;;7.90;2.30;;;;;;;;;;5054470;28;20084;-85
2022/05/13 06:16:22;;;;;;;8.95;2.60;;;;;;;;;;5054524;28;20086;-90
2022/05/13 06:18:48;;;;;;;4.90;2.08;;;;;;;;;;5071548;28;20044;-86
2022/05/13 06:21:14;;;;;;;7.90;2.65;;;;;;;;;;5054485;28;20074;-86
2022/05/13 06:23:40;;;;;;;5.20;2.50;;;;;;;;;;5054167;28;20239;-85
2022/05/13 06:26:06;;;;;;;4.93;2.47;;;;;;;;;;5054351;28;20041;-90
2022/05/13 06:28:32;;;;;;;9.15;2.40;;;;;;;;;;5054722;28;20036;-87
2022/05/13 06:30:59;;;;;;;5.28;2.33;;;;;;;;;;5054651;28;20036;-84
2022/05/13 06:33:25;;;;;;;12.88;2.42;;;;;;;;;;5054837;28;20051;-86
2022/05/13 06:35:51;;;;;;;10.00;2.80;;;;;;;;;;5054669;28;20416;-85
2022/05/13 06:38:20;;;;;;;4.45;2.13;;;;;;;;;;5054887;28;20488;-83
2022/05/13 06:40:53;;;;;;;8.57;2.40;;;;;;;;;;5054066;28;20047;-86
2022/05/13 06:43:20;;;;;;;13.60;2.53;;;;;;;;;;5054083;28;20068;-88
2022/05/13 06:45:46;;;;;;;7.43;2.72;;;;;;;;;;5057157;28;20092;-82
2022/05/13 06:48:12;;;;;;;6.88;2.35;;;;;;;;;;5058137;28;20048;-87
2022/05/13 06:50:38;;;;;;;8.65;2.53;;;;;;;;;;5058490;28;20044;-88
2022/05/13 06:53:05;;;;;;;6.20;2.05;;;;;;;;;;5057703;28;20416;-85
2022/05/13 06:55:31;;;;;;;5.88;2.65;;;;;;;;;;5057649;28;20048;-89
2022/05/13 06:57:58;;;;;;;11.90;2.50;;;;;;;;;;5057444;28;20128;-83
2022/05/13 07:00:24;;;;;;;6.97;2.20;;;;;;;;;;5057509;28;20445;-88
2022/05/13 07:02:50;;;;;;;8.60;2.22;;;;;;;;;;5074584;28;20039;-88
2022/05/13 07:05:17;;;;;;;7.45;1.85;;;;;;;;;;5057499;28;20048;-85
2022/05/13 07:07:43;;;;;;;6.75;1.75;;;;;;;;;;5057701;28;20068;-85
2022/05/13 07:10:10;;;;;;;5.30;1.90;;;;;;;;;;5057231;28;20036;-86
2022/05/13 07:12:39;;;;;;;5.45;1.65;;;;;;;;;;5057490;28;20492;-87
2022/05/13 07:15:07;;;;;;;6.60;2.10;;;;;;;;;;5057524;28;20048;-83
2022/05/13 07:17:33;;;;;;;7.90;2.20;;;;;;;;;;5074378;28;20424;-79
2022/05/13 07:19:59;;;;;;;5.63;2.10;;;;;;;;;;5057509;28;20059;-87
2022/05/13 07:22:25;;;;;;;3.53;1.50;;;;;;;;;;5057724;28;20142;-83
2022/05/13 07:24:51;;;;;;;3.97;2.20;;;;;;;;;;5073646;28;20076;-86
2022/05/13 07:27:18;;;;;;;5.63;1.60;;;;;;;;;;5054495;28;20083;-81
2022/05/13 07:29:44;;;;;;;5.30;1.63;;;;;;;;;;5053803;28;20367;-83
2022/05/13 07:32:10;;;;;;;5.13;1.35;;;;;;;;;;5069438;28;20504;-82
2022/05/13 07:34:36;;;;;;;4.75;1.60;;;;;;;;;;5069846;28;20044;-86
2022/05/13 07:37:03;;;;;;;3.10;1.75;;;;;;;;;;5053721;28;20210;-86
2022/05/13 07:42:14;;;;;;;8.35;1.73;;;;;;;;;;5070240;28;20428;-81
2022/05/13 07:44:40;;;;;;;3.75;1.50;;;;;;;;;;5053280;28;20055;-81
2022/05/13 07:47:07;;;;;;;4.28;1.60;;;;;;;;;;5052844;28;20394;-85
2022/05/13 07:49:34;;;;;;;3.47;1.40;;;;;;;;;;5069886;28;20040;-83
2022/05/13 07:52:00;;;;;;;6.80;2.13;;;;;;;;;;5053156;28;20163;-82
2022/05/13 07:54:27;;;;;;;3.92;2.00;;;;;;;;;;5069958;28;20041;-81
2022/05/13 07:56:53;;;;;;;4.32;2.10;;;;;;;;;;5052130;28;20491;-86
2022/05/13 07:59:20;;;;;;;6.70;2.38;;;;;;;;;;5053670;28;20043;-83
2022/05/13 08:01:46;;;;;;;4.95;1.85;;;;;;;;;;5052871;28;20085;-86
2022/05/13 08:04:12;;;;;;;5.57;1.90;;;;;;;;;;5052963;28;20036;-84
2022/05/13 08:06:38;;;;;;;3.83;1.70;;;;;;;;;;5069876;28;20067;-81
2022/05/13 08:09:04;;;;;;;4.55;1.70;;;;;;;;;;5069419;28;20040;-83
2022/05/13 08:11:30;;;;;;;3.95;1.75;;;;;;;;;;5069650;28;20306;-86
2022/05/13 08:13:57;;;;;;;2.13;1.13;;;;;;;;;;5069762;28;20481;-81
2022/05/13 08:16:26;;;;;;;5.50;1.60;;;;;;;;;;5068944;28;20040;-84
2022/05/13 08:18:52;;;;;;;2.65;1.50;;;;;;;;;;5069469;28;20051;-89
2022/05/13 08:21:21;;;;;;;6.72;1.60;;;;;;;;;;5069191;28;20051;-87
2022/05/13 08:23:48;;;;;;;3.97;1.88;;;;;;;;;;5069050;28;20328;-83
2022/05/13 08:26:14;;;;;;;3.53;1.25;;;;;;;;;;5049568;28;20117;-83
2022/05/13 08:28:40;;;;;;;3.50;1.08;;;;;;;;;;5052097;28;20395;-83
2022/05/13 08:31:07;;;;;;;6.18;1.80;;;;;;;;;;5051926;28;20036;-83
2022/05/13 08:33:33;;;;;;;4.18;1.33;;;;;;;;;;5052323;28;20155;-83
2022/05/13 08:36:01;;;;;;;3.13;1.30;;;;;;;;;;5052014;28;20119;-82
2022/05/13 08:38:29;;;;;;;3.83;1.60;;;;;;;;;;5051945;28;20450;-87
2022/05/13 08:41:08;;;;;;;3.95;1.20;;;;;;;;;;5049539;28;20044;-84
2022/05/13 08:43:35;;;;;;;3.67;1.30;;;;;;;;;;5048978;28;20554;-86
2022/05/13 08:46:07;;;;;;;1.27;0.95;;;;;;;;;;5051547;28;20057;-87
2022/05/13 08:48:35;;;;;;;2.60;1.20;;;;;;;;;;5051889;28;20396;-85
2022/05/13 08:51:09;;;;;;;2.75;1.00;;;;;;;;;;5052309;28;20127;-80
2022/05/13 08:53:57;;;;;;;2.00;1.10;;;;;;;;;;5049592;28;20063;-81
2022/05/13 08:56:25;;;;;;;3.65;0.82;;;;;;;;;;5051742;28;20048;-84
2022/05/13 08:58:54;;;;;;;2.40;1.17;;;;;;;;;;5051516;28;20059;-84
2022/05/13 09:01:24;;;;;;;4.38;1.13;;;;;;;;;;5051893;28;20044;-83
2022/05/13 09:03:54;;;;;;;3.33;1.42;;;;;;;;;;5067991;28;20072;-82
2022/05/13 09:06:23;;;;;;;1.58;1.15;;;;;;;;;;5051875;28;20041;-84
2022/05/13 09:08:49;;;;;;;5.82;1.20;;;;;;;;;;5051044;28;20044;-82
2022/05/13 09:11:24;;;;;;;2.05;1.02;;;;;;;;;;5051466;28;20123;-81
2022/05/13 09:14:12;;;;;;;4.05;1.27;;;;;;;;;;5051669;28;20134;-83
2022/05/13 09:16:49;;;;;;;3.63;1.20;;;;;;;;;;5051713;28;20508;-82
2022/05/13 09:19:34;;;;;;;4.50;1.40;;;;;;;;;;5051616;28;20083;-82
2022/05/13 09:22:02;;;;;;;2.45;1.30;;;;;;;;;;5068080;28;20048;-84
2022/05/13 09:24:31;;;;;;;3.40;1.17;;;;;;;;;;5051708;28;20044;-82
2022/05/13 09:26:57;;;;;;;2.60;1.50;;;;;;;;;;5067966;28;20082;-81
2022/05/13 09:29:25;;;;;;;3.08;1.85;;;;;;;;;;5051037;28;20404;-85
2022/05/13 09:32:00;;;;;;;3.10;1.60;;;;;;;;;;5051224;28;20103;-85
2022/05/13 09:34:34;;;;;;;3.15;1.42;;;;;;;;;;5051701;28;20055;-86
2022/05/13 09:37:11;;;;;;;3.20;1.23;;;;;;;;;;5050666;28;20066;-83
2022/05/13 09:39:43;;;;;;;4.20;1.35;;;;;;;;;;5051654;28;20048;-86
2022/05/13 09:42:29;;;;;;;1.40;1.30;;;;;;;;;;5051072;28;20067;-84
2022/05/13 09:45:12;;;;;;;3.80;1.40;;;;;;;;;;5061231;28;20109;-83
2022/05/13 09:47:38;;;;;;;1.77;1.38;;;;;;;;;;5051568;28;20068;-80
2022/05/13 09:50:23;;;;;;;2.15;1.30;;;;;;;;;;5051164;28;20131;-84
2022/05/13 09:52:49;;;;;;;2.63;0.98;;;;;;;;;;5068452;28;20041;-85
2022/05/13 09:55:35;;;;;;;5.47;1.30;;;;;;;;;;5067666;28;20476;-86
2022/05/13 09:58:02;;;;;;;2.00;1.08;;;;;;;;;;5050952;28;20063;-84
2022/05/13 10:00:30;;;;;;;3.75;1.60;;;;;;;;;;5051039;28;20044;-80
2022/05/13 10:03:15;;;;;;;3.90;1.38;;;;;;;;;;5050644;28;20041;-84
2022/05/13 10:05:41;;;;;;;4.93;1.20;;;;;;;;;;5051004;28;20709;-85
2022/05/13 10:08:09;;;;;;;3.22;1.20;;;;;;;;;;5050069;28;20044;-81
2022/05/13 10:16:09;;;;;;;3.85;1.60;;;;;;;;;;5067335;28;20561;-85
2022/05/13 10:18:37;;;;;;;1.75;1.00;;;;;;;;;;5050096;28;20055;-82
2022/05/13 10:21:13;;;;;;;2.58;1.05;;;;;;;;;;5049634;28;20029;-82
2022/05/13 10:23:55;;;;;;;3.13;1.33;;;;;;;;;;5066685;28;20041;-84
2022/05/13 10:26:29;;;;;;;2.55;1.05;;;;;;;;;;5066307;28;20480;-83
2022/05/13 10:29:21;;;;;;;2.70;1.33;;;;;;;;;;5066832;28;20041;-84
2022/05/13 10:31:49;;;;;;;1.35;1.10;;;;;;;;;;5066850;28;20123;-83
2022/05/13 10:34:34;;;;;;;4.43;1.42;;;;;;;;;;5066846;28;20044;-80
2022/05/13 10:37:06;;;;;;;3.17;1.15;;;;;;;;;;5049553;28;20066;-83
2022/05/13 10:39:44;;;;;;;2.63;1.20;;;;;;;;;;5048130;28;20500;-85
2022/05/13 10:42:29;;;;;;;2.28;1.10;;;;;;;;;;5064366;28;20311;-84
2022/05/13 10:45:02;;;;;;;6.28;1.20;;;;;;;;;;5048692;28;20035;-85
2022/05/13 10:47:47;;;;;;;1.95;1.13;;;;;;;;;;5047409;28;20408;-82
2022/05/13 10:50:36;;;;;;;4.35;1.05;;;;;;;;;;5047945;28;20039;-83
2022/05/13 10:53:22;;;;;;;2.88;1.30;;;;;;;;;;5043779;28;20060;-78
2022/05/13 10:55:51;;;;;;;6.10;1.15;;;;;;;;;;5063782;28;20090;-81
2022/05/13 10:58:36;;;;;;;6.50;1.65;;;;;;;;;;5049725;28;20048;-87
2022/05/13 11:01:21;;;;;;;4.90;2.15;;;;;;;;;;5066420;28;20045;-81
2022/05/13 11:03:58;;;;;;;3.85;1.30;;;;;;;;;;5047320;28;20041;-85
2022/05/13 11:06:45;;;;;;;2.80;1.10;;;;;;;;;;5050088;28;20044;-83
2022/05/13 11:09:18;;;;;;;3.20;1.50;;;;;;;;;;5048148;28;20076;-85
2022/05/13 11:11:45;;;;;;;3.00;1.20;;;;;;;;;;5066585;28;20068;-85
2022/05/13 11:14:34;;;;;;;6.28;1.58;;;;;;;;;;5049556;28;20076;-84
2022/05/13 11:17:15;;;;;;;2.10;0.88;;;;;;;;;;5049211;28;20045;-84
2022/05/13 11:20:09;;;;;;;2.85;1.20;;;;;;;;;;5049925;28;20329;-79
2022/05/13 11:22:35;;;;;;;2.60;0.90;;;;;;;;;;5069443;28;20078;-82
2022/05/13 11:28:12;;;;;;;2.03;0.95;;;;;;;;;;5069766;28;20040;-87
2022/05/13 11:30:42;;;;;;;2.20;0.90;;;;;;;;;;5070804;28;20477;-85
2022/05/13 11:33:27;;;;;;;2.88;1.00;;;;;;;;;;5056460;28;20048;-83
2022/05/13 11:35:53;;;;;;;3.47;1.05;;;;;;;;;;5074596;28;20388;-83
2022/05/13 11:38:23;;;;;;;1.17;1.05;;;;;;;;;;5073060;28;20052;-79
2022/05/13 11:41:25;;;;;;;3.17;1.30;;;;;;;;;;5055788;28;20405;-88
2022/05/13 11:43:51;;;;;;;2.00;1.05;;;;;;;;;;5031177;28;20047;-81
2022/05/13 11:46:18;;;;;;;2.65;1.15;;;;;;;;;;5061004;28;20482;-82
2022/05/13 11:48:47;;;;;;;3.72;1.35;;;;;;;;;;5074088;28;20048;-88
2022/05/13 11:51:15;;;;;;;5.88;1.60;;;;;;;;;;5058305;28;20047;-83
2022/05/13 11:53:41;;;;;;;2.40;1.20;;;;;;;;;;5074467;28;20098;-84
2022/05/13 11:56:19;;;;;;;4.43;1.25;;;;;;;;;;5074312;28;20485;-81
2022/05/13 11:58:45;;;;;;;3.15;1.15;;;;;;;;;;5072810;28;20037;-82
2022/05/13 12:01:11;;;;;;;2.22;1.10;;;;;;;;;;5056202;28;20051;-84
2022/05/13 12:03:38;;;;;;;3.90;1.48;;;;;;;;;;5056085;28;20040;-83
2022/05/13 12:06:08;;;;;;;4.82;1.67;;;;;;;;;;5056103;28;20392;-84
2022/05/13 12:08:37;;;;;;;5.75;1.50;;;;;;;;;;5056262;28;20063;-86
2022/05/13 12:11:03;;;;;;;2.13;1.20;;;;;;;;;;5056083;28;20033;-83
2022/05/13 12:13:34;;;;;;;4.05;1.33;;;;;;;;;;5056194;28;20036;-84
2022/05/13 12:16:08;;;;;;;2.70;1.42;;;;;;;;;;5055951;28;20044;-80
2022/05/13 12:18:54;;;;;;;1.75;1.23;;;;;;;;;;5055904;28;20052;-80
2022/05/13 12:21:25;;;;;;;3.35;1.25;;;;;;;;;;5055764;28;20064;-80
2022/05/13 12:24:01;;;;;;;4.32;1.20;;;;;;;;;;5055783;28;20044;-79
2022/05/13 12:26:54;;;;;;;2.55;0.85;;;;;;;;;;5055740;28;20378;-80
2022/05/13 12:29:23;;;;;;;3.22;0.80;;;;;;;;;;5057293;28;20067;-79
2022/05/13 12:31:55;;;;;;;2.22;0.93;;;;;;;;;;5072239;28;20382;-81
2022/05/13 12:40:24;;;;;;;2.67;0.75;;;;;;;;;;5047634;28;20496;-79
2022/05/13 12:42:50;;;;;;;3.92;0.95;;;;;;;;;;5047183;28;20410;-81
2022/05/13 12:45:22;;;;;;;1.98;0.70;;;;;;;;;;5055538;28;20548;-82
2022/05/13 12:48:09;;;;;;;1.50;1.00;;;;;;;;;;5072010;28;20041;-79
2022/05/13 12:50:41;;;;;;;2.08;1.25;;;;;;;;;;5055158;28;20120;-81
2022/05/13 12:53:26;;;;;;;4.70;2.17;;;;;;;;;;5071740;28;20044;-84
2022/05/13 12:55:52;;;;;;;2.70;1.05;;;;;;;;;;5055290;28;20123;-82
2022/05/13 12:58:19;;;;;;;2.42;1.20;;;;;;;;;;5038673;28;20047;-82
2022/05/13 13:00:49;;;;;;;1.60;0.77;;;;;;;;;;5055363;28;20063;-84
2022/05/13 13:03:15;;;;;;;4.72;1.13;;;;;;;;;;5055200;28;20131;-79
2022/05/13 13:05:47;;;;;;;3.15;1.00;;;;;;;;;;5054993;28;20492;-81
2022/05/13 13:08:18;;;;;;;3.72;1.52;;;;;;;;;;5055056;28;20508;-83
2022/05/13 13:11:11;;;;;;;5.65;1.10;;;;;;;;;;5071527;28;20048;-82
2022/05/13 13:14:03;;;;;;;1.67;0.90;;;;;;;;;;5016968;28;20114;-84
2022/05/13 13:16:51;;;;;;;1.65;0.95;;;;;;;;;;5010597;28;20127;-81
2022/05/13 13:19:23;;;;;;;2.40;0.70;;;;;;;;;;5071334;28;20048;-83
2022/05/13 13:21:59;;;;;;;2.67;1.10;;;;;;;;;;5071351;28;20048;-80
2022/05/13 13:24:30;;;;;;;7.70;1.30;;;;;;;;;;5038064;28;20028;-78
2022/05/13 13:26:58;;;;;;;5.95;1.40;;;;;;;;;;5038281;28;20055;-80
2022/05/13 13:29:38;;;;;;;1.63;0.95;;;;;;;;;;5071141;28;20392;-79
2022/05/13 13:32:07;;;;;;;4.35;1.10;;;;;;;;;;5071124;28;20395;-83
2022/05/13 13:34:38;;;;;;;3.72;1.42;;;;;;;;;;5070892;28;20044;-79
2022/05/13 13:37:06;;;;;;;2.47;0.98;;;;;;;;;;5054501;28;20439;-81
2022/05/13 13:39:32;;;;;;;3.10;0.98;;;;;;;;;;5070796;28;20109;-78
2022/05/13 13:42:01;;;;;;;2.38;1.30;;;;;;;;;;5070840;28;20048;-80
2022/05/13 13:44:27;;;;;;;5.40;1.65;;;;;;;;;;5054251;28;20431;-79
2022/05/13 13:46:53;;;;;;;4.60;1.30;;;;;;;;;;5053799;28;20053;-80
2022/05/13 13:49:25;;;;;;;2.38;1.25;;;;;;;;;;5070944;28;20041;-79
2022/05/13 13:51:53;;;;;;;6.47;1.73;;;;;;;;;;5070948;28;20507;-84
2022/05/13 13:54:23;;;;;;;4.38;1.55;;;;;;;;;;5054248;28;20044;-78
2022/05/13 13:57:11;;;;;;;6.60;1.55;;;;;;;;;;5054079;28;20492;-84
2022/05/13 13:59:44;;;;;;;3.80;1.23;;;;;;;;;;5054015;28;20458;-84
2022/05/13 14:02:11;;;;;;;5.97;1.85;;;;;;;;;;5053963;28;20143;-79
2022/05/13 14:04:48;;;;;;;4.68;1.67;;;;;;;;;;5071105;28;20076;-84
2022/05/13 14:07:16;;;;;;;6.07;1.63;;;;;;;;;;5070431;28;20036;-84
2022/05/13 14:09:45;;;;;;;7.60;1.20;;;;;;;;;;5070491;28;20044;-83
2022/05/13 14:12:16;;;;;;;4.30;1.88;;;;;;;;;;5070559;28;20044;-79
2022/05/13 14:14:43;;;;;;;5.07;1.23;;;;;;;;;;5053871;28;20131;-79
2022/05/13 14:17:10;;;;;;;3.55;1.65;;;;;;;;;;5053581;28;20036;-81
2022/05/13 14:19:38;;;;;;;5.18;1.48;;;;;;;;;;5070331;28;20404;-83
2022/05/13 14:22:05;;;;;;;8.23;1.42;;;;;;;;;;5053756;28;20037;-78
2022/05/13 14:24:32;;;;;;;6.72;1.88;;;;;;;;;;5037310;28;20110;-81
2022/05/13 14:27:00;;;;;;;6.93;1.45;;;;;;;;;;5070620;28;20040;-82
2022/05/13 14:29:31;;;;;;;2.40;1.40;;;;;;;;;;5053589;28;20040;-81
2022/05/13 14:31:57;;;;;;;;;;;;;;;;;;5070758;28;20098;-84
2022/05/13 14:34:23;;;;;;;4.57;1.73;;;;;;;;;;5053275;28;20368;-82
2022/05/13 14:36:57;;;;;;;4.28;1.63;;;;;;;;;;5053888;28;20036;-85
2022/05/13 14:42:13;;;;;;;3.28;1.23;;;;;;;;;;5070106;28;20048;-81
2022/05/13 14:44:41;;;;;;;3.58;1.40;;;;;;;;;;5053510;28;20139;-82
2022/05/13 14:47:15;;;;;;;4.13;1.30;;;;;;;;;;5033439;28;20041;-83
2022/05/13 14:49:41;;;;;;;4.80;1.13;;;;;;;;;;5033638;28;20478;-81
2022/05/13 14:52:07;;;;;;;7.63;2.00;;;;;;;;;;5033647;28;20052;-81
2022/05/13 14:54:37;;;;;;;7.95;1.50;;;;;;;;;;5033343;28;20053;-79
2022/05/13 14:57:05;;;;;;;3.22;1.20;;;;;;;;;;5050140;28;20446;-79
2022/05/13 14:59:42;;;;;;;5.68;1.60;;;;;;;;;;5050163;28;20049;-85
2022/05/13 15:02:11;;;;;;;2.05;1.38;;;;;;;;;;5050276;28;20037;-85
2022/05/13 15:04:38;;;;;;;3.92;1.45;;;;;;;;;;5049845;28;20040;-79
2022/05/13 15:07:16;;;;;;;3.33;1.38;;;;;;;;;;5053647;28;20040;-77
2022/05/13 15:09:46;;;;;;;7.65;1.80;;;;;;;;;;5037216;28;20068;-84
2022/05/13 15:12:12;;;;;;;8.00;2.03;;;;;;;;;;5037643;28;20052;-81
2022/05/13 15:14:38;;;;;;;4.22;1.33;;;;;;;;;;5037794;28;20069;-81
2022/05/13 15:17:05;;;;;;;2.97;1.65;;;;;;;;;;5037285;28;20440;-80
2022/05/13 15:19:38;;;;;;;4.22;1.50;;;;;;;;;;5037401;28;20512;-83
2022/05/13 15:22:04;;;;;;;3.63;1.77;;;;;;;;;;5053800;28;20072;-82
2022/05/13 15:24:32;;;;;;;4.13;1.50;;;;;;;;;;5053739;28;20500;-79
2022/05/13 15:27:00;;;;;;;4.40;1.10;;;;;;;;;;5036834;28;20400;-83
2022/05/13 15:29:27;;;;;;;10.95;2.75;;;;;;;;;;5053648;28;20192;-81
2022/05/13 15:31:53;;;;;;;4.03;1.45;;;;;;;;;;5037134;28;20883;-81
2022/05/13 15:34:19;;;;;;;4.50;1.90;;;;;;;;;;5036748;28;20123;-83
2022/05/13 15:36:45;;;;;;;3.30;1.20;;;;;;;;;;5053292;28;20508;-81
2022/05/13 15:39:11;;;;;;;4.80;1.27;;;;;;;;;;5036728;28;20536;-77